LESO/EAS METAR and TAF weather

Enter ICAO airport designator
Station Type Date Time Source
LESO METAR 2019/09/21 21:30 UTC NOAA

LESO 212130Z AUTO 19010KT CAVOK 26/15 Q1006


Station Type Date Time Source
LESO Decoded METAR 2019/09/21 21:30 UTC NOAA

San Sebastian / Fuenterrabia, Spain (LESO) 43-21N 001-48W 8M
Sep 21, 2019 - 05:30 PM EDT / 2019.09.21 2130 UTC
Wind: from the S (190 degrees) at 12 MPH (10 KT):0
Visibility: greater than 7 mile(s):0
Temperature: 78 F (26 C)
Dew Point: 59 F (15 C)
Relative Humidity: 50%
Pressure (altimeter): 29.71 in. Hg (1006 hPa)
ob: LESO 212130Z AUTO 19010KT CAVOK 26/15 Q1006
cycle: 21

Station Type Date Time Source
LESO TAF 2019/09/21 18:27 UTC NOAA

TAF LESO 211700Z 2118/2218 19009KT 9999 FEW030 SCT045 TX24/2214Z TN16/2205Z PROB30
TEMPO 2118/2202 17015G25KT FEW040TCU
BECMG 2200/2203 32010KT PROB30
TEMPO 2200/2204 30015G25KT
TEMPO 2200/2207 3000 RA SHRA SCT020TCU
BECMG 2205/2207 22007KT
TEMPO 2214/2218 34010KT SCT030TCU

Example: see airport list